Time;durP1;ratioP1;P1;durP2;ratioP2;P2;SDS_P1;SDS_P2;PMS_P1;PMS_P2;Temp;Humidity;BMP_temperature;BMP_pressure;BME280_temperature;BME280_humidity;BME280_pressure;Samples;Min_cycle;Max_cycle;Signal;HPM_P1;HPM_P2
2022/10/18 00:02:12;;;;;;;19.00;11.70;;;11.40;99.90;;;;;;5113684;28;20272;-75
2022/10/18 00:04:39;;;;;;;16.70;11.53;;;11.40;99.90;;;;;;5113609;28;20798;-75
2022/10/18 00:07:05;;;;;;;21.80;10.97;;;11.30;99.90;;;;;;5113547;28;20203;-76
2022/10/18 00:09:32;;;;;;;17.17;11.83;;;11.40;99.90;;;;;;5113764;28;20191;-75
2022/10/18 00:11:59;;;;;;;19.80;11.50;;;11.30;99.90;;;;;;5113550;28;20249;-75
2022/10/18 00:14:26;;;;;;;22.80;12.50;;;11.30;99.90;;;;;;5113548;28;20202;-75
2022/10/18 00:16:54;;;;;;;13.73;11.30;;;11.20;99.90;;;;;;5113456;28;20795;-75
2022/10/18 00:19:21;;;;;;;17.30;11.60;;;11.20;99.90;;;;;;5113319;28;20313;-75
2022/10/18 00:21:51;;;;;;;21.67;12.57;;;11.20;99.90;;;;;;5113273;28;20647;-75
2022/10/18 00:24:17;;;;;;;16.60;11.60;;;11.20;99.90;;;;;;5113711;28;20191;-75
2022/10/18 00:26:44;;;;;;;13.53;12.07;;;11.20;99.90;;;;;;5113387;28;20191;-75
2022/10/18 00:29:14;;;;;;;16.53;11.93;;;11.20;99.90;;;;;;5113349;28;20200;-75
2022/10/18 00:31:41;;;;;;;17.63;11.43;;;11.10;99.90;;;;;;5113426;28;20196;-75
2022/10/18 00:34:12;;;;;;;16.80;11.77;;;11.10;99.90;;;;;;5113036;28;20252;-75
2022/10/18 00:36:39;;;;;;;16.83;11.77;;;11.00;99.90;;;;;;5113275;28;20200;-75
2022/10/18 00:39:07;;;;;;;20.70;11.87;;;10.90;99.90;;;;;;5112946;28;20759;-75
2022/10/18 00:41:36;;;;;;;11.97;10.60;;;10.90;99.90;;;;;;5113195;28;20196;-75
2022/10/18 00:44:05;;;;;;;14.47;10.97;;;10.90;99.90;;;;;;5113176;28;20204;-75
2022/10/18 00:46:34;;;;;;;16.53;11.50;;;10.80;99.90;;;;;;5113029;28;20597;-75
2022/10/18 00:49:05;;;;;;;16.40;11.90;;;10.90;99.90;;;;;;5113242;28;20657;-75
2022/10/18 00:51:38;;;;;;;16.73;11.33;;;11.00;99.90;;;;;;5113242;28;20268;-75
2022/10/18 00:54:05;;;;;;;20.37;11.97;;;11.00;99.90;;;;;;5113019;28;20223;-75
2022/10/18 00:56:33;;;;;;;19.20;11.27;;;10.90;99.90;;;;;;5112958;28;20651;-75
2022/10/18 00:59:00;;;;;;;18.30;11.00;;;10.90;99.90;;;;;;5112915;28;20643;-75
2022/10/18 01:01:27;;;;;;;16.67;10.50;;;10.90;99.90;;;;;;5113352;28;20195;-75
2022/10/18 01:03:54;;;;;;;17.43;10.87;;;10.90;99.90;;;;;;5113090;28;20605;-75
2022/10/18 01:06:21;;;;;;;26.67;11.47;;;10.90;99.90;;;;;;5113022;28;20199;-75
2022/10/18 01:09:03;;;;;;;16.53;10.33;;;10.80;99.90;;;;;;5113026;28;20200;-75
2022/10/18 01:11:44;;;;;;;21.17;10.50;;;10.80;99.90;;;;;;5112872;28;20195;-75
2022/10/18 01:14:22;;;;;;;14.30;11.13;;;10.70;99.90;;;;;;5112936;28;20227;-75
2022/10/18 01:16:53;;;;;;;40.30;26.20;;;10.70;99.90;;;;;;5112968;28;20200;-75
2022/10/18 01:19:43;;;;;;;21.37;15.70;;;10.80;99.90;;;;;;5113003;28;20199;-75
2022/10/18 01:22:17;;;;;;;20.80;12.70;;;10.70;99.90;;;;;;5112828;28;20204;-75
2022/10/18 01:25:01;;;;;;;24.37;13.90;;;10.70;99.90;;;;;;5112750;28;20195;-75
2022/10/18 01:27:38;;;;;;;21.87;13.97;;;10.70;99.90;;;;;;5112831;28;20606;-75
2022/10/18 01:30:34;;;;;;;20.83;14.13;;;10.70;99.90;;;;;;5112764;28;20612;-75
2022/10/18 01:33:07;;;;;;;15.10;10.50;;;10.80;99.90;;;;;;5112575;28;20686;-75
2022/10/18 01:35:39;;;;;;;18.70;11.10;;;10.70;99.90;;;;;;5112790;28;20192;-75
2022/10/18 01:38:11;;;;;;;18.80;11.33;;;10.70;99.90;;;;;;5112550;28;20249;-75
2022/10/18 01:40:39;;;;;;;13.63;10.77;;;10.70;99.90;;;;;;5112681;28;20630;-76
2022/10/18 01:43:08;;;;;;;19.27;11.23;;;10.70;99.90;;;;;;5112595;28;20656;-75
2022/10/18 01:45:37;;;;;;;17.03;10.73;;;10.70;99.90;;;;;;5112725;28;20252;-75
2022/10/18 01:48:04;;;;;;;14.93;10.10;;;10.60;99.90;;;;;;5116104;28;20221;-75
2022/10/18 01:50:33;;;;;;;12.40;10.37;;;10.60;99.90;;;;;;5116392;27;20195;-75
2022/10/18 01:53:01;;;;;;;12.40;9.37;;;10.60;99.90;;;;;;5116011;28;20269;-75
2022/10/18 01:55:37;;;;;;;14.83;10.60;;;10.60;99.90;;;;;;5116140;28;20195;-75
2022/10/18 01:58:09;;;;;;;13.87;10.20;;;10.50;99.90;;;;;;5116333;28;20241;-75
2022/10/18 02:00:41;;;;;;;13.40;10.00;;;10.50;99.90;;;;;;5116005;28;20596;-75
2022/10/18 02:03:15;;;;;;;12.50;10.40;;;10.50;99.90;;;;;;5116124;28;20290;-75
2022/10/18 02:05:48;;;;;;;12.67;9.83;;;10.50;99.90;;;;;;5115956;28;20612;-75
2022/10/18 02:08:20;;;;;;;13.63;9.90;;;10.50;99.90;;;;;;5116114;28;20196;-75
2022/10/18 02:10:50;;;;;;;10.23;9.10;;;10.40;99.90;;;;;;5116011;28;20200;-75
2022/10/18 02:13:20;;;;;;;12.23;9.07;;;10.50;99.90;;;;;;5115943;28;20212;-75
2022/10/18 02:15:53;;;;;;;15.67;9.53;;;10.50;99.90;;;;;;5115763;28;20645;-75
2022/10/18 02:18:25;;;;;;;15.70;9.57;;;10.60;99.90;;;;;;5115654;28;20195;-75
2022/10/18 02:20:53;;;;;;;16.93;10.47;;;10.60;99.90;;;;;;5115884;28;20191;-75
2022/10/18 02:23:24;;;;;;;19.53;10.20;;;10.60;99.90;;;;;;5115740;28;20199;-75
2022/10/18 02:25:52;;;;;;;12.90;9.53;;;10.60;99.90;;;;;;5115703;28;20207;-75
2022/10/18 02:28:19;;;;;;;15.67;10.10;;;10.50;99.90;;;;;;5115496;28;20525;-75
2022/10/18 02:30:53;;;;;;;14.00;10.23;;;10.40;99.90;;;;;;5115478;28;20336;-75
2022/10/18 02:33:27;;;;;;;13.73;9.60;;;10.60;99.90;;;;;;5115626;28;20276;-75
2022/10/18 02:35:59;;;;;;;13.30;10.00;;;10.50;99.90;;;;;;5115582;28;20195;-75
2022/10/18 02:38:28;;;;;;;14.13;9.73;;;10.40;99.90;;;;;;5115417;28;20241;-75
2022/10/18 02:40:55;;;;;;;13.20;10.43;;;10.40;99.90;;;;;;5115393;28;20199;-75
2022/10/18 02:43:24;;;;;;;20.00;10.47;;;10.40;99.90;;;;;;5115246;28;20200;-75
2022/10/18 02:45:52;;;;;;;13.53;10.27;;;10.40;99.90;;;;;;5115315;28;20195;-74
2022/10/18 02:48:19;;;;;;;14.43;10.20;;;10.40;99.90;;;;;;5115205;28;20704;-75
2022/10/18 02:50:46;;;;;;;15.37;10.00;;;10.50;99.90;;;;;;5115031;28;20199;-75
2022/10/18 02:53:12;;;;;;;12.73;10.60;;;10.50;99.90;;;;;;5114951;28;20223;-75
2022/10/18 02:55:39;;;;;;;13.77;10.00;;;10.50;99.90;;;;;;5114938;28;20229;-76
2022/10/18 02:58:05;;;;;;;16.47;10.70;;;10.60;99.90;;;;;;5115188;28;20249;-75
2022/10/18 03:00:32;;;;;;;14.53;10.87;;;10.60;99.90;;;;;;5115161;28;20199;-75
2022/10/18 03:03:00;;;;;;;19.13;11.17;;;10.70;99.90;;;;;;5115024;28;20268;-75
2022/10/18 03:05:27;;;;;;;19.70;12.10;;;10.70;99.90;;;;;;5114851;28;20252;-75
2022/10/18 03:07:56;;;;;;;25.13;14.37;;;10.70;99.90;;;;;;5114883;28;20199;-75
2022/10/18 03:10:22;;;;;;;30.53;16.80;;;10.80;99.90;;;;;;5114556;28;20658;-75
2022/10/18 03:12:49;;;;;;;27.93;14.07;;;10.80;99.90;;;;;;5114760;28;20191;-75
2022/10/18 03:15:16;;;;;;;32.60;14.70;;;10.90;99.90;;;;;;5114734;28;20192;-75
2022/10/18 03:17:42;;;;;;;30.73;16.57;;;11.00;99.90;;;;;;5114546;28;20199;-75
2022/10/18 03:20:11;;;;;;;27.10;14.73;;;11.00;99.90;;;;;;5114410;28;20196;-75
2022/10/18 03:22:38;;;;;;;25.33;14.80;;;11.00;99.90;;;;;;5114484;28;20210;-75
2022/10/18 03:25:05;;;;;;;25.67;13.60;;;11.00;99.90;;;;;;5114526;28;20671;-75
2022/10/18 03:27:32;;;;;;;23.10;12.80;;;11.10;99.90;;;;;;5114600;28;20249;-75
2022/10/18 03:29:59;;;;;;;25.67;12.50;;;11.10;99.90;;;;;;5114382;28;20245;-75
2022/10/18 03:32:26;;;;;;;25.60;12.53;;;11.10;99.90;;;;;;5114252;28;20249;-76
2022/10/18 03:34:53;;;;;;;20.20;12.03;;;11.20;99.90;;;;;;5114214;28;20364;-75
2022/10/18 03:37:21;;;;;;;14.13;11.60;;;11.10;99.90;;;;;;5114066;28;20199;-76
2022/10/18 03:39:47;;;;;;;19.13;10.03;;;11.20;99.90;;;;;;5113975;28;20231;-75
2022/10/18 03:42:14;;;;;;;15.83;10.50;;;11.10;99.90;;;;;;5114202;28;20199;-75
2022/10/18 03:44:41;;;;;;;20.23;10.37;;;11.20;99.90;;;;;;5114127;28;20203;-75
2022/10/18 03:47:07;;;;;;;13.33;9.20;;;11.10;99.90;;;;;;5114079;28;20283;-75
2022/10/18 03:49:34;;;;;;;15.60;10.20;;;11.20;99.90;;;;;;5113901;28;20716;-75
2022/10/18 03:52:01;;;;;;;14.17;10.43;;;11.20;99.90;;;;;;5113764;28;20203;-75
2022/10/18 03:54:29;;;;;;;14.47;9.97;;;11.20;99.90;;;;;;5113989;28;20227;-75
2022/10/18 03:56:55;;;;;;;11.37;9.87;;;11.20;99.90;;;;;;5113968;28;20252;-75
2022/10/18 03:59:22;;;;;;;10.83;9.10;;;11.20;99.90;;;;;;5113693;28;20643;-75
2022/10/18 04:01:49;;;;;;;15.43;9.40;;;11.20;99.90;;;;;;5113598;28;20245;-75
2022/10/18 04:04:16;;;;;;;13.57;10.20;;;11.30;99.90;;;;;;5113671;28;20211;-75
2022/10/18 04:06:42;;;;;;;21.17;10.30;;;11.30;99.90;;;;;;5113501;28;20204;-75
2022/10/18 04:09:09;;;;;;;16.80;10.53;;;11.30;99.90;;;;;;5113018;28;20245;-75
2022/10/18 04:11:37;;;;;;;12.47;9.87;;;11.30;99.90;;;;;;5113440;28;20651;-75
2022/10/18 04:14:04;;;;;;;15.77;10.63;;;11.30;99.90;;;;;;5113403;28;20227;-75
2022/10/18 04:16:30;;;;;;;18.03;10.83;;;11.40;99.90;;;;;;5113427;28;20654;-75
2022/10/18 04:18:57;;;;;;;17.27;10.73;;;11.30;99.90;;;;;;5113323;28;20606;-75
2022/10/18 04:21:24;;;;;;;14.47;9.87;;;11.40;99.90;;;;;;5113477;28;20228;-75
2022/10/18 04:23:50;;;;;;;16.60;10.00;;;11.40;99.90;;;;;;5113387;28;20199;-75
2022/10/18 04:26:17;;;;;;;19.07;10.13;;;11.40;99.90;;;;;;5113292;28;20704;-75
2022/10/18 04:28:45;;;;;;;15.53;10.30;;;11.40;99.90;;;;;;5113398;28;20203;-75
2022/10/18 04:31:12;;;;;;;15.00;10.20;;;11.40;99.90;;;;;;5113248;28;20191;-75
2022/10/18 04:33:39;;;;;;;16.70;9.33;;;11.30;99.90;;;;;;5113111;28;20572;-75
2022/10/18 04:36:06;;;;;;;12.67;9.23;;;11.40;99.90;;;;;;5113408;28;20608;-75
2022/10/18 04:38:32;;;;;;;17.73;10.50;;;11.40;99.90;;;;;;5113024;28;20234;-75
2022/10/18 04:40:59;;;;;;;11.57;9.80;;;11.30;99.90;;;;;;5113235;28;20192;-75
2022/10/18 04:43:26;;;;;;;14.47;9.73;;;11.30;99.90;;;;;;5113169;28;20272;-75
2022/10/18 04:45:54;;;;;;;18.00;9.63;;;11.30;99.90;;;;;;5113591;28;20577;-75
2022/10/18 04:48:20;;;;;;;19.13;10.33;;;11.30;99.90;;;;;;5113105;28;20589;-75
2022/10/18 04:50:48;;;;;;;22.90;9.93;;;11.30;99.90;;;;;;5113292;28;20248;-74
2022/10/18 04:53:15;;;;;;;15.87;10.43;;;11.30;99.90;;;;;;5113169;28;20196;-75
2022/10/18 04:55:43;;;;;;;20.50;10.90;;;11.30;99.90;;;;;;5113055;28;20244;-75
2022/10/18 04:58:10;;;;;;;14.43;10.53;;;11.40;99.90;;;;;;5113208;28;20219;-75
2022/10/18 05:00:37;;;;;;;19.70;11.23;;;11.30;99.90;;;;;;5112983;28;20651;-75
2022/10/18 05:03:06;;;;;;;14.93;10.63;;;11.40;99.90;;;;;;5112967;28;20204;-75
2022/10/18 05:05:32;;;;;;;17.00;11.10;;;11.40;99.90;;;;;;5113118;28;20221;-75
2022/10/18 05:07:59;;;;;;;19.07;10.43;;;11.40;99.90;;;;;;5112929;28;20680;-75
2022/10/18 05:10:26;;;;;;;15.13;10.33;;;11.40;99.90;;;;;;5113031;28;20612;-76
2022/10/18 05:12:53;;;;;;;23.07;11.97;;;11.40;99.90;;;;;;5112953;28;20253;-76
2022/10/18 05:15:19;;;;;;;21.00;14.27;;;11.40;99.90;;;;;;5112763;28;20228;-76
2022/10/18 05:17:46;;;;;;;21.77;13.67;;;11.50;99.90;;;;;;5112992;28;20199;-75
2022/10/18 05:20:14;;;;;;;20.83;14.70;;;11.40;99.90;;;;;;5112850;28;20240;-76
2022/10/18 05:22:41;;;;;;;20.97;14.30;;;11.40;99.90;;;;;;5115712;28;20770;-76
2022/10/18 05:25:08;;;;;;;27.53;13.60;;;11.40;99.90;;;;;;5116612;28;20605;-76
2022/10/18 05:27:35;;;;;;;20.90;12.80;;;11.40;99.90;;;;;;5116635;28;20593;-76
2022/10/18 05:30:02;;;;;;;20.83;12.60;;;11.40;99.90;;;;;;5116789;28;20204;-76
2022/10/18 05:32:29;;;;;;;17.07;12.37;;;11.40;99.90;;;;;;5116520;28;20650;-75
2022/10/18 05:34:56;;;;;;;20.10;12.70;;;11.40;99.90;;;;;;5116634;28;20235;-76
2022/10/18 05:37:24;;;;;;;18.30;12.57;;;11.50;99.90;;;;;;5116548;28;20192;-76
2022/10/18 05:39:51;;;;;;;19.47;11.83;;;11.50;99.90;;;;;;5116493;28;20231;-76
2022/10/18 05:42:18;;;;;;;23.23;12.67;;;11.60;99.90;;;;;;5116337;28;20195;-76
2022/10/18 05:44:45;;;;;;;23.77;12.50;;;11.60;99.90;;;;;;5116652;28;20272;-76
2022/10/18 05:47:11;;;;;;;26.20;13.30;;;11.70;99.90;;;;;;5116234;28;20286;-75
2022/10/18 05:49:38;;;;;;;21.70;12.77;;;11.70;99.90;;;;;;5116249;28;20223;-75
2022/10/18 05:52:05;;;;;;;19.00;12.53;;;11.80;99.90;;;;;;5116140;28;20652;-76
2022/10/18 05:54:33;;;;;;;21.30;11.67;;;11.90;99.90;;;;;;5116034;28;20219;-75
2022/10/18 05:57:00;;;;;;;20.40;11.70;;;11.90;99.90;;;;;;5115993;28;20272;-75
2022/10/18 05:59:27;;;;;;;14.73;10.37;;;12.00;99.90;;;;;;5116326;28;20204;-74
2022/10/18 06:01:53;;;;;;;28.23;11.77;;;12.00;99.90;;;;;;5115927;28;20192;-75
2022/10/18 06:04:20;;;;;;;19.73;12.33;;;12.10;99.90;;;;;;5116084;28;20222;-74
2022/10/18 06:06:47;;;;;;;24.50;13.93;;;12.10;99.90;;;;;;5116068;28;20207;-75
2022/10/18 06:09:14;;;;;;;22.67;12.77;;;12.20;99.90;;;;;;5115844;28;20191;-75
2022/10/18 06:11:42;;;;;;;17.93;11.90;;;12.30;99.90;;;;;;5115753;28;20536;-76
2022/10/18 06:14:09;;;;;;;22.40;13.57;;;12.30;99.90;;;;;;5115902;28;20268;-75
2022/10/18 06:16:36;;;;;;;18.83;12.70;;;12.40;99.90;;;;;;5115838;28;20650;-75
2022/10/18 06:19:03;;;;;;;22.27;12.47;;;12.50;99.90;;;;;;5115728;28;20195;-75
2022/10/18 06:21:29;;;;;;;21.93;12.30;;;12.50;99.90;;;;;;5115606;28;20195;-75
2022/10/18 06:23:58;;;;;;;18.97;12.80;;;12.60;99.90;;;;;;5115479;28;20204;-75
2022/10/18 06:26:25;;;;;;;17.57;11.27;;;12.70;99.90;;;;;;5115809;28;20196;-75
2022/10/18 06:28:53;;;;;;;16.47;11.87;;;12.80;99.90;;;;;;5115731;28;20203;-75
2022/10/18 06:31:20;;;;;;;16.73;11.10;;;12.80;99.90;;;;;;5115629;28;20192;-75
2022/10/18 06:33:47;;;;;;;14.80;10.47;;;12.90;99.90;;;;;;5115046;28;20291;-75
2022/10/18 06:36:16;;;;;;;16.03;11.07;;;13.00;99.90;;;;;;5115370;28;20754;-75
2022/10/18 06:38:42;;;;;;;22.17;11.87;;;13.00;99.90;;;;;;5115047;28;20301;-75
2022/10/18 06:41:09;;;;;;;18.13;11.90;;;13.00;99.90;;;;;;5115440;28;20198;-75
2022/10/18 06:43:36;;;;;;;20.73;12.80;;;13.00;99.90;;;;;;5115432;28;20199;-75
2022/10/18 06:46:06;;;;;;;20.03;13.27;;;13.00;99.90;;;;;;5115131;28;20719;-75
2022/10/18 06:48:33;;;;;;;16.77;12.40;;;13.00;99.90;;;;;;5115353;28;20195;-75
2022/10/18 06:51:02;;;;;;;19.20;13.63;;;13.10;99.90;;;;;;5114996;28;20238;-74
2022/10/18 06:53:31;;;;;;;21.97;14.27;;;13.00;99.90;;;;;;5115584;28;20203;-75
2022/10/18 06:56:00;;;;;;;22.50;14.33;;;13.10;99.90;;;;;;5115086;28;20276;-75
2022/10/18 06:58:27;;;;;;;22.33;13.87;;;13.20;99.90;;;;;;5115137;28;20196;-76
2022/10/18 07:00:53;;;;;;;18.93;13.20;;;13.30;99.90;;;;;;5114819;28;20647;-75
2022/10/18 07:03:22;;;;;;;19.80;13.60;;;13.40;99.90;;;;;;5114912;28;20200;-75
2022/10/18 07:05:48;;;;;;;22.03;14.93;;;13.40;99.90;;;;;;5114639;28;20203;-75
2022/10/18 07:08:15;;;;;;;20.97;14.13;;;13.50;99.90;;;;;;5114911;28;20192;-75
2022/10/18 07:10:42;;;;;;;23.67;13.67;;;13.60;99.90;;;;;;5114813;28;20604;-75
2022/10/18 07:13:09;;;;;;;21.07;13.60;;;13.70;99.90;;;;;;5114631;28;20196;-75
2022/10/18 07:15:37;;;;;;;20.70;13.80;;;13.80;99.90;;;;;;5114563;28;20227;-75
2022/10/18 07:18:04;;;;;;;19.90;13.93;;;13.90;99.90;;;;;;5114608;28;20203;-75
2022/10/18 07:20:32;;;;;;;16.10;13.60;;;14.00;99.90;;;;;;5114539;27;20195;-76
2022/10/18 07:22:59;;;;;;;20.60;12.87;;;14.20;99.90;;;;;;5114749;28;20601;-77
2022/10/18 07:25:25;;;;;;;19.33;13.77;;;14.40;99.90;;;;;;5114577;28;20204;-75
2022/10/18 07:27:52;;;;;;;16.13;12.37;;;14.60;99.90;;;;;;5114482;28;20207;-75
2022/10/18 07:30:19;;;;;;;22.83;12.70;;;14.90;99.90;;;;;;5114404;28;20199;-75
2022/10/18 07:32:46;;;;;;;19.10;11.87;;;15.10;99.90;;;;;;5114105;28;20195;-75
2022/10/18 07:35:12;;;;;;;18.98;12.82;;;15.40;99.90;;;;;;5114253;28;20228;-74
2022/10/18 07:37:40;;;;;;;16.88;12.20;;;15.60;99.90;;;;;;5114250;28;20260;-74
2022/10/18 07:40:10;;;;;;;13.45;10.15;;;15.80;99.90;;;;;;5113828;28;20280;-75
2022/10/18 07:42:36;;;;;;;16.40;11.07;;;16.10;99.90;;;;;;5114103;28;20288;-75
2022/10/18 07:45:04;;;;;;;12.75;9.15;;;16.40;99.90;;;;;;5113454;28;20195;-76
2022/10/18 07:47:30;;;;;;;13.35;8.68;;;16.60;99.90;;;;;;5114321;28;20199;-76
2022/10/18 07:49:57;;;;;;;14.13;8.52;;;16.80;99.90;;;;;;5114254;28;20245;-75
2022/10/18 07:52:24;;;;;;;14.35;8.25;;;17.10;99.90;;;;;;5114064;28;20196;-75
2022/10/18 07:54:52;;;;;;;14.38;8.90;;;17.30;99.90;;;;;;5113665;28;20219;-75
2022/10/18 07:57:18;;;;;;;10.25;8.45;;;17.40;99.90;;;;;;5113842;28;20191;-77
2022/10/18 07:59:47;;;;;;;12.70;7.10;;;17.50;99.90;;;;;;5113759;28;20196;-76
2022/10/18 08:02:13;;;;;;;10.27;5.70;;;17.50;99.90;;;;;;5114099;28;20543;-75
2022/10/18 08:04:40;;;;;;;6.15;5.30;;;17.40;99.90;;;;;;5113584;28;20666;-75
2022/10/18 08:07:07;;;;;;;8.43;5.50;;;17.40;99.90;;;;;;5113871;28;20206;-74
2022/10/18 08:09:33;;;;;;;16.25;8.32;;;17.30;99.90;;;;;;5113496;28;20207;-75
2022/10/18 08:12:01;;;;;;;12.85;8.45;;;17.40;99.90;;;;;;5113463;28;20199;-75
2022/10/18 08:14:28;;;;;;;14.38;7.65;;;17.50;99.90;;;;;;5113323;28;20211;-75
2022/10/18 08:16:55;;;;;;;12.52;8.05;;;17.60;99.90;;;;;;5113607;28;20199;-75
2022/10/18 08:19:22;;;;;;;8.85;5.20;;;17.70;99.90;;;;;;5113333;28;20245;-75
2022/10/18 08:21:48;;;;;;;8.77;5.07;;;17.90;99.90;;;;;;5113474;28;20200;-75
2022/10/18 08:24:15;;;;;;;7.35;5.35;;;18.30;99.90;;;;;;5113447;28;20191;-77
2022/10/18 08:26:42;;;;;;;7.20;4.93;;;18.50;99.90;;;;;;5113308;28;20195;-76
2022/10/18 08:29:10;;;;;;;6.90;4.43;;;18.90;99.90;;;;;;5113144;28;20237;-75
2022/10/18 08:31:37;;;;;;;9.55;4.75;;;18.90;99.90;;;;;;5113153;28;20647;-75
2022/10/18 08:34:03;;;;;;;9.15;5.00;;;19.00;99.90;;;;;;5113366;28;20203;-76
2022/10/18 08:36:30;;;;;;;6.28;4.78;;;19.10;99.90;;;;;;5113249;28;20280;-74
2022/10/18 08:38:57;;;;;;;9.25;4.45;;;19.00;99.90;;;;;;5113138;28;20280;-75
2022/10/18 08:41:41;;;;;;;10.80;4.32;;;19.20;99.90;;;;;;5113112;28;20199;-75
2022/10/18 08:44:15;;;;;;;9.88;4.80;;;19.30;99.90;;;;;;5113126;28;20597;-75
2022/10/18 08:46:46;;;;;;;10.27;4.70;;;19.10;99.90;;;;;;5113394;28;20256;-75
2022/10/18 08:49:22;;;;;;;9.23;4.65;;;19.50;99.90;;;;;;5113146;28;20196;-76
2022/10/18 08:51:51;;;;;;;13.38;4.88;;;19.70;99.90;;;;;;5113025;28;20626;-74
2022/10/18 08:54:24;;;;;;;5.45;4.28;;;20.20;99.90;;;;;;5112934;28;20703;-74
2022/10/18 08:56:58;;;;;;;8.30;4.50;;;20.20;99.90;;;;;;5116762;28;20260;-75
2022/10/18 08:59:31;;;;;;;9.48;4.22;;;20.60;99.90;;;;;;5117203;28;20603;-75
2022/10/18 09:02:06;;;;;;;6.97;3.85;;;20.50;99.90;;;;;;5117080;28;20199;-76
2022/10/18 09:04:44;;;;;;;6.97;4.13;;;20.40;99.90;;;;;;5117077;28;20199;-75
2022/10/18 09:07:27;;;;;;;9.50;4.13;;;20.40;99.90;;;;;;5117236;28;20540;-75
2022/10/18 09:09:59;;;;;;;8.02;3.88;;;20.50;99.90;;;;;;5117298;28;20366;-77
2022/10/18 09:12:43;;;;;;;7.85;3.83;;;20.80;99.90;;;;;;5117148;28;20199;-76
2022/10/18 09:15:21;;;;;;;8.23;3.60;;;21.20;99.90;;;;;;5117186;27;20272;-77
2022/10/18 09:18:03;;;;;;;8.82;4.03;;;21.80;99.90;;;;;;5117117;28;20203;-76
2022/10/18 09:20:37;;;;;;;5.15;3.58;;;21.90;99.90;;;;;;5116841;28;20643;-77
2022/10/18 09:23:14;;;;;;;7.50;3.90;;;22.20;99.90;;;;;;5116638;28;20661;-76
2022/10/18 09:25:45;;;;;;;7.15;3.40;;;21.90;99.90;;;;;;5117008;28;20554;-76
2022/10/18 09:28:19;;;;;;;7.30;3.88;;;21.80;99.90;;;;;;5117104;28;20203;-77
2022/10/18 09:30:58;;;;;;;5.60;3.90;;;21.60;99.90;;;;;;5116949;28;20195;-76
2022/10/18 09:33:40;;;;;;;7.50;4.40;;;21.50;99.90;;;;;;5117259;28;20195;-77
2022/10/18 09:36:09;;;;;;;7.45;3.60;;;21.20;99.90;;;;;;5117171;28;20223;-76
2022/10/18 09:38:44;;;;;;;7.50;3.60;;;21.30;99.90;;;;;;5117013;28;20231;-76
2022/10/18 09:41:18;;;;;;;4.78;3.75;;;21.40;99.90;;;;;;5116935;28;20256;-75
2022/10/18 09:43:54;;;;;;;6.45;3.75;;;21.30;99.90;;;;;;5116667;28;20203;-75
2022/10/18 09:46:27;;;;;;;5.65;4.13;;;21.20;99.90;;;;;;5116903;28;20532;-75
2022/10/18 09:48:58;;;;;;;9.35;4.30;;;21.50;99.90;;;;;;5116467;28;20728;-76
2022/10/18 09:51:29;;;;;;;6.38;4.35;;;21.40;99.90;;;;;;5116446;28;20192;-76
2022/10/18 09:54:05;;;;;;;8.10;4.30;;;20.50;99.90;;;;;;5116471;28;20195;-74
2022/10/18 09:56:40;;;;;;;5.65;3.95;;;20.40;99.90;;;;;;5116318;28;20231;-75
2022/10/18 09:59:21;;;;;;;7.93;3.83;;;20.40;99.90;;;;;;5116104;28;20596;-75
2022/10/18 10:01:49;;;;;;;6.43;3.95;;;20.50;99.90;;;;;;5116221;28;20196;-76
2022/10/18 10:04:15;;;;;;;4.72;3.80;;;20.60;99.90;;;;;;5115858;28;20597;-76
2022/10/18 10:06:49;;;;;;;7.78;4.00;;;20.40;99.90;;;;;;5115344;28;20663;-77
2022/10/18 10:09:17;;;;;;;7.93;4.18;;;19.90;99.90;;;;;;5115969;28;20294;-76
2022/10/18 10:11:46;;;;;;;6.97;4.00;;;19.90;99.90;;;;;;5116079;28;20199;-77
2022/10/18 10:14:16;;;;;;;7.18;3.90;;;19.80;99.90;;;;;;5115873;28;20199;-76
2022/10/18 10:16:47;;;;;;;6.65;4.18;;;19.90;99.90;;;;;;5115788;28;20246;-76
2022/10/18 10:19:27;;;;;;;8.18;4.47;;;19.80;99.90;;;;;;5115886;28;20231;-76
2022/10/18 10:21:58;;;;;;;8.07;4.40;;;19.70;99.90;;;;;;5115752;28;20276;-76
2022/10/18 10:24:32;;;;;;;8.38;4.22;;;19.60;99.90;;;;;;5115865;28;20261;-76
2022/10/18 10:27:01;;;;;;;6.30;3.70;;;19.60;99.90;;;;;;5115761;28;20203;-77
2022/10/18 10:29:55;;;;;;;5.97;3.85;;;19.40;99.90;;;;;;5115587;28;20241;-76
2022/10/18 10:32:24;;;;;;;7.57;3.88;;;19.30;99.90;;;;;;5115713;28;20195;-76
2022/10/18 10:34:53;;;;;;;10.80;4.05;;;19.30;99.90;;;;;;5115658;28;20219;-76
2022/10/18 10:37:26;;;;;;;5.85;4.28;;;19.30;99.90;;;;;;5115405;28;20203;-76
2022/10/18 10:40:14;;;;;;;5.65;4.30;;;19.30;99.90;;;;;;5115261;28;20257;-76
2022/10/18 10:42:59;;;;;;;6.15;4.40;;;19.40;99.90;;;;;;5115617;28;20200;-76
2022/10/18 10:45:28;;;;;;;11.70;4.30;;;19.80;99.90;;;;;;5115428;28;20207;-76
2022/10/18 10:48:04;;;;;;;5.55;4.10;;;19.80;99.90;;;;;;5115185;28;20199;-76
2022/10/18 10:50:33;;;;;;;7.65;4.30;;;19.70;99.90;;;;;;5115142;28;20221;-76
2022/10/18 10:53:01;;;;;;;8.35;4.30;;;19.70;99.90;;;;;;5114923;28;20195;-76
2022/10/18 10:55:34;;;;;;;7.32;4.30;;;19.30;99.90;;;;;;5115218;28;20627;-76
2022/10/18 10:58:00;;;;;;;6.38;4.18;;;19.20;99.90;;;;;;5115121;28;20207;-76
2022/10/18 11:00:39;;;;;;;8.50;4.00;;;18.90;99.90;;;;;;5114983;28;20195;-77
2022/10/18 11:03:11;;;;;;;10.07;4.80;;;18.60;99.90;;;;;;5115085;28;20196;-75
2022/10/18 11:05:47;;;;;;;7.90;4.85;;;18.50;99.90;;;;;;5115039;28;20290;-75
2022/10/18 11:08:18;;;;;;;7.80;5.05;;;18.40;99.90;;;;;;5114917;28;20207;-75
2022/10/18 11:10:58;;;;;;;8.10;4.95;;;18.90;99.90;;;;;;5115066;28;20203;-75
2022/10/18 11:13:38;;;;;;;6.13;4.63;;;19.30;99.90;;;;;;5114853;28;20203;-76
2022/10/18 11:16:10;;;;;;;7.50;4.60;;;19.00;99.90;;;;;;5114467;28;20318;-73
2022/10/18 11:18:39;;;;;;;6.18;4.38;;;18.20;99.90;;;;;;5113987;28;20214;-74
2022/10/18 11:21:11;;;;;;;6.00;5.07;;;17.70;99.90;;;;;;5114452;28;20317;-74
2022/10/18 11:23:41;;;;;;;9.43;5.82;;;17.50;99.90;;;;;;5114597;28;20643;-74
2022/10/18 11:26:31;;;;;;;7.90;5.78;;;17.40;99.90;;;;;;5114360;28;20199;-75
2022/10/18 11:29:15;;;;;;;9.30;5.68;;;17.30;99.90;;;;;;5114385;28;20647;-74
2022/10/18 11:31:52;;;;;;;8.93;5.75;;;17.20;99.90;;;;;;5114534;28;20202;-72
2022/10/18 11:34:42;;;;;;;7.95;6.03;;;16.80;99.90;;;;;;5114444;28;20195;-72
2022/10/18 11:37:21;;;;;;;8.80;6.97;;;16.30;99.90;;;;;;5114354;28;20269;-72
2022/10/18 11:40:00;;;;;;;8.07;7.15;;;16.20;99.90;;;;;;5114296;28;20231;-72
2022/10/18 11:42:32;;;;;;;9.18;7.38;;;16.40;99.90;;;;;;5114380;28;20195;-73
2022/10/18 11:45:07;;;;;;;10.32;6.85;;;16.90;99.90;;;;;;5114201;28;20655;-73
2022/10/18 11:47:42;;;;;;;12.00;6.70;;;18.60;99.90;;;;;;5114113;28;20199;-73
2022/10/18 11:50:25;;;;;;;9.90;6.80;;;18.50;99.90;;;;;;5114026;28;20195;-73
2022/10/18 11:53:02;;;;;;;6.95;6.05;;;18.40;99.90;;;;;;5114177;28;20211;-73
2022/10/18 11:55:48;;;;;;;10.75;5.50;;;18.50;99.90;;;;;;5113919;28;20248;-73
2022/10/18 11:58:28;;;;;;;9.98;5.15;;;19.40;99.90;;;;;;5114146;28;20200;-73
2022/10/18 12:01:01;;;;;;;9.32;4.90;;;20.10;99.90;;;;;;5115059;28;20203;-74
2022/10/18 12:03:47;;;;;;;8.30;4.70;;;20.40;99.90;;;;;;5115127;28;20192;-74
2022/10/18 12:06:17;;;;;;;6.10;4.60;;;19.80;99.90;;;;;;5114311;28;20661;-74
2022/10/18 12:08:48;;;;;;;10.88;5.10;;;20.00;99.90;;;;;;5114165;27;20195;-75
2022/10/18 12:11:19;;;;;;;12.45;5.38;;;20.30;99.90;;;;;;5114123;28;20256;-74
2022/10/18 12:13:49;;;;;;;7.03;4.68;;;20.50;99.90;;;;;;5114005;28;20245;-75
2022/10/18 12:16:20;;;;;;;9.75;5.00;;;20.70;99.90;;;;;;5113721;28;20219;-75
2022/10/18 12:18:54;;;;;;;6.07;4.35;;;21.10;99.90;;;;;;5114195;28;20207;-75
2022/10/18 12:21:23;;;;;;;10.98;4.72;;;20.80;99.90;;;;;;5113996;28;20597;-75
2022/10/18 12:23:55;;;;;;;8.35;5.13;;;20.50;99.90;;;;;;5113733;28;20229;-75
2022/10/18 12:26:22;;;;;;;14.02;5.40;;;20.50;99.90;;;;;;5113813;28;20248;-75
2022/10/18 12:28:58;;;;;;;7.28;4.82;;;19.80;99.90;;;;;;5113797;28;20672;-75
2022/10/18 12:31:32;;;;;;;8.15;4.45;;;19.80;99.90;;;;;;5113278;28;20199;-75
2022/10/18 12:34:02;;;;;;;8.23;4.63;;;20.10;99.90;;;;;;5113222;28;20539;-76
2022/10/18 12:36:52;;;;;;;7.47;4.93;;;19.90;99.90;;;;;;5113299;28;20552;-75
2022/10/18 12:39:25;;;;;;;5.97;5.18;;;19.10;99.90;;;;;;5113234;28;20230;-76
2022/10/18 12:41:53;;;;;;;7.57;5.40;;;18.70;99.90;;;;;;5112404;28;20191;-75
2022/10/18 12:44:26;;;;;;;6.68;5.38;;;18.50;99.90;;;;;;5113559;28;20290;-75
2022/10/18 12:46:55;;;;;;;8.98;5.70;;;18.50;99.90;;;;;;5113407;28;20191;-75
2022/10/18 12:49:26;;;;;;;7.50;5.20;;;18.60;99.90;;;;;;5113356;28;20229;-76
2022/10/18 12:51:57;;;;;;;6.85;4.72;;;19.10;99.90;;;;;;5113377;28;20667;-75